createdAt,value
2022-08-17T00:00:03.909Z,18.30
2022-08-17T00:02:31.204Z,18.20
2022-08-17T00:05:04.119Z,18.10
2022-08-17T00:07:31.088Z,18.00
2022-08-17T00:09:58.078Z,18.00
2022-08-17T00:12:42.870Z,18.10
2022-08-17T00:15:13.411Z,18.10
2022-08-17T00:17:42.438Z,18.10
2022-08-17T00:20:12.032Z,18.10
2022-08-17T00:22:38.967Z,18.10
2022-08-17T00:25:12.439Z,18.10
2022-08-17T00:27:40.281Z,18.20
2022-08-17T00:30:11.240Z,18.10
2022-08-17T00:33:23.147Z,18.00
2022-08-17T00:35:33.145Z,18.10
2022-08-17T00:38:00.210Z,18.00
2022-08-17T00:40:27.732Z,18.00
2022-08-17T00:43:18.863Z,17.90
2022-08-17T00:45:46.240Z,17.90
2022-08-17T00:48:27.263Z,17.80
2022-08-17T00:51:08.726Z,17.90
2022-08-17T00:53:41.966Z,17.90
2022-08-17T00:56:15.451Z,17.80
2022-08-17T00:58:42.381Z,17.80
2022-08-17T01:01:11.374Z,17.80
2022-08-17T01:03:40.721Z,17.80
2022-08-17T01:06:09.278Z,17.80
2022-08-17T01:08:38.445Z,17.80
2022-08-17T01:11:06.659Z,17.80
2022-08-17T01:13:42.597Z,17.80
2022-08-17T01:16:29.959Z,17.70
2022-08-17T01:19:05.925Z,17.70
2022-08-17T01:22:11.335Z,17.70
2022-08-17T01:24:53.631Z,17.80
2022-08-17T01:27:21.672Z,17.80
2022-08-17T01:29:58.280Z,17.70
2022-08-17T01:32:27.625Z,17.80
2022-08-17T01:34:55.432Z,17.80
2022-08-17T01:37:37.241Z,17.80
2022-08-17T01:40:23.767Z,17.80
2022-08-17T01:43:07.354Z,17.80
2022-08-17T01:45:44.553Z,17.80
2022-08-17T01:48:12.822Z,17.80
2022-08-17T01:50:43.706Z,17.80
2022-08-17T01:53:29.533Z,17.90
2022-08-17T01:56:12.005Z,17.90
2022-08-17T01:58:40.508Z,17.80
2022-08-17T02:01:09.795Z,17.80
2022-08-17T02:03:38.409Z,17.80
2022-08-17T02:06:27.053Z,17.80
2022-08-17T02:09:01.622Z,17.80
2022-08-17T02:11:33.302Z,17.80
2022-08-17T02:14:02.825Z,17.80
2022-08-17T02:16:37.517Z,17.70
2022-08-17T02:19:16.596Z,17.60
2022-08-17T02:21:47.313Z,17.60
2022-08-17T02:24:58.400Z,17.60
2022-08-17T02:27:16.831Z,17.50
2022-08-17T02:29:43.796Z,17.50
2022-08-17T02:32:27.241Z,17.40
2022-08-17T02:34:58.780Z,17.40
2022-08-17T02:37:27.731Z,17.40
2022-08-17T02:39:57.154Z,17.40
2022-08-17T02:42:34.756Z,17.30
2022-08-17T02:45:04.276Z,17.30
2022-08-17T02:47:31.444Z,17.40
2022-08-17T02:49:58.362Z,17.40
2022-08-17T02:52:43.020Z,17.50
2022-08-17T02:55:19.315Z,17.40
2022-08-17T02:57:46.884Z,17.40
2022-08-17T03:00:25.593Z,17.30
2022-08-17T03:02:52.911Z,17.20
2022-08-17T03:05:24.110Z,17.40
2022-08-17T03:07:52.275Z,17.80
2022-08-17T03:10:21.542Z,18.30
2022-08-17T03:12:48.658Z,18.60
2022-08-17T03:15:23.839Z,18.90
2022-08-17T03:20:20.609Z,19.20
2022-08-17T03:22:53.546Z,19.30
2022-08-17T03:25:43.996Z,19.30
2022-08-17T03:28:12.353Z,19.40
2022-08-17T03:30:40.157Z,19.40
2022-08-17T03:33:12.349Z,19.40
2022-08-17T03:35:40.923Z,19.40
2022-08-17T03:38:10.345Z,19.50
2022-08-17T03:40:59.076Z,19.50
2022-08-17T03:43:32.263Z,19.50
2022-08-17T03:46:34.004Z,19.60
2022-08-17T03:49:26.859Z,19.60
2022-08-17T03:52:15.130Z,19.70
2022-08-17T03:55:02.418Z,19.80
2022-08-17T03:57:30.454Z,19.80
2022-08-17T03:59:57.927Z,19.90
2022-08-17T04:02:30.937Z,19.90
2022-08-17T04:04:58.619Z,19.90
2022-08-17T04:07:29.756Z,19.90
2022-08-17T04:09:57.965Z,19.90
2022-08-17T04:12:31.801Z,19.80
2022-08-17T04:14:59.371Z,19.70
2022-08-17T04:17:29.453Z,19.70
2022-08-17T04:19:57.409Z,19.60
2022-08-17T04:22:30.666Z,19.60
2022-08-17T04:25:16.123Z,19.50
2022-08-17T04:27:42.938Z,19.50
2022-08-17T04:30:10.853Z,19.40
2022-08-17T04:33:03.837Z,19.50
2022-08-17T04:35:55.130Z,19.40
2022-08-17T04:38:25.855Z,19.30
2022-08-17T04:41:12.610Z,19.30
2022-08-17T04:43:41.742Z,19.30
2022-08-17T04:46:17.720Z,19.20
2022-08-17T04:48:53.214Z,19.30
2022-08-17T04:51:28.443Z,19.20
2022-08-17T04:54:18.367Z,19.20
2022-08-17T04:56:46.273Z,19.10
2022-08-17T04:59:20.276Z,19.10
2022-08-17T05:01:52.521Z,19.10
2022-08-17T05:04:33.825Z,19.10
2022-08-17T05:07:01.738Z,19.10
2022-08-17T05:09:29.034Z,19.30
2022-08-17T05:11:56.293Z,19.40
2022-08-17T05:14:33.137Z,19.50
2022-08-17T05:17:01.964Z,19.40
2022-08-17T05:19:34.496Z,19.40
2022-08-17T05:22:05.810Z,19.30
2022-08-17T05:24:42.756Z,19.40
2022-08-17T05:27:19.171Z,19.40
2022-08-17T05:29:46.380Z,19.50
2022-08-17T05:32:38.495Z,19.50
2022-08-17T05:35:01.145Z,19.60
2022-08-17T05:37:28.440Z,19.50
2022-08-17T05:39:55.349Z,19.50
2022-08-17T05:42:22.633Z,19.50
2022-08-17T05:44:50.079Z,19.50
2022-08-17T05:47:18.326Z,19.50
2022-08-17T05:49:45.526Z,19.50
2022-08-17T05:52:56.542Z,19.30
2022-08-17T05:55:55.554Z,19.20
2022-08-17T05:58:59.033Z,19.10
2022-08-17T06:02:16.287Z,19.10
2022-08-17T06:05:39.949Z,19.10
2022-08-17T06:08:27.058Z,19.00
2022-08-17T06:11:19.809Z,19.00
2022-08-17T06:13:56.998Z,19.00
2022-08-17T06:16:34.027Z,19.10
2022-08-17T06:19:20.052Z,19.10
2022-08-17T06:21:51.354Z,19.10
2022-08-17T06:24:20.955Z,19.10
2022-08-17T06:26:48.762Z,19.20
2022-08-17T06:29:46.058Z,19.30
2022-08-17T06:32:14.624Z,19.40
2022-08-17T06:34:43.755Z,19.50
2022-08-17T06:37:25.661Z,19.70
2022-08-17T06:39:52.513Z,19.90
2022-08-17T06:43:32.631Z,20.00
2022-08-17T06:46:18.428Z,20.10
2022-08-17T06:49:12.598Z,20.20
2022-08-17T06:51:46.419Z,20.20
2022-08-17T06:54:22.224Z,20.10
2022-08-17T06:57:17.803Z,20.10
2022-08-17T07:00:26.006Z,20.20
2022-08-17T07:03:01.674Z,20.20
2022-08-17T07:06:11.427Z,20.20
2022-08-17T07:08:44.551Z,20.40
2022-08-17T07:11:19.702Z,20.60
2022-08-17T07:14:16.547Z,20.80
2022-08-17T07:16:54.516Z,21.00
2022-08-17T07:19:25.890Z,21.10
2022-08-17T07:22:30.528Z,21.00
2022-08-17T07:25:20.887Z,21.00
2022-08-17T07:27:53.410Z,21.10
2022-08-17T07:30:28.537Z,21.10
2022-08-17T07:33:01.393Z,21.20
2022-08-17T07:35:44.959Z,21.20
2022-08-17T07:38:34.157Z,21.20
2022-08-17T07:41:06.320Z,21.20
2022-08-17T07:43:39.092Z,21.20
2022-08-17T07:46:44.964Z,21.20
2022-08-17T07:49:14.473Z,21.30
2022-08-17T07:51:45.540Z,21.60
2022-08-17T07:54:15.915Z,21.80
2022-08-17T07:56:55.237Z,21.90
2022-08-17T07:59:38.777Z,22.00
2022-08-17T08:02:31.695Z,22.20
2022-08-17T08:05:49.153Z,22.30
2022-08-17T08:08:26.600Z,22.40
2022-08-17T08:11:07.360Z,22.30
2022-08-17T08:13:42.222Z,22.30
2022-08-17T08:16:24.347Z,22.30
2022-08-17T08:18:59.958Z,22.30
2022-08-17T08:21:49.419Z,22.30
2022-08-17T08:24:40.159Z,22.40
2022-08-17T08:27:28.777Z,22.50
2022-08-17T08:29:57.715Z,22.40
2022-08-17T08:33:20.264Z,22.30
2022-08-17T08:35:54.411Z,22.20
2022-08-17T08:38:43.081Z,22.10
2022-08-17T08:41:19.194Z,22.10
2022-08-17T08:44:16.305Z,22.20
2022-08-17T08:47:18.189Z,22.30
2022-08-17T08:50:38.227Z,22.30
2022-08-17T08:53:25.099Z,22.30
2022-08-17T08:56:03.645Z,22.40
2022-08-17T08:58:55.882Z,22.80
2022-08-17T09:01:43.171Z,23.00
2022-08-17T09:04:24.669Z,23.10
2022-08-17T09:07:39.743Z,23.20
2022-08-17T09:10:21.487Z,23.30
2022-08-17T09:13:22.689Z,23.20
2022-08-17T09:16:07.693Z,23.00
2022-08-17T09:19:00.988Z,22.90
2022-08-17T09:21:57.372Z,23.00
2022-08-17T09:24:44.448Z,23.30
2022-08-17T09:27:19.723Z,23.30
2022-08-17T09:29:57.883Z,23.60
2022-08-17T09:32:31.846Z,23.70
2022-08-17T09:35:15.758Z,23.80
2022-08-17T09:37:53.229Z,23.80
2022-08-17T09:40:34.819Z,23.80
2022-08-17T09:43:10.308Z,23.90
2022-08-17T09:46:13.935Z,23.70
2022-08-17T09:49:37.539Z,23.80
2022-08-17T09:52:23.589Z,24.00
2022-08-17T09:54:53.995Z,24.20
2022-08-17T09:57:32.356Z,24.70
2022-08-17T10:00:11.687Z,25.20
2022-08-17T10:03:16.218Z,25.60
2022-08-17T10:06:06.864Z,26.00
2022-08-17T10:08:52.292Z,26.70
2022-08-17T10:12:01.947Z,27.00
2022-08-17T10:14:43.864Z,27.30
2022-08-17T10:17:33.767Z,27.80
2022-08-17T10:20:30.171Z,28.10
2022-08-17T10:23:25.416Z,28.00
2022-08-17T10:26:14.765Z,28.10
2022-08-17T10:29:17.490Z,28.20
2022-08-17T10:31:51.022Z,28.20
2022-08-17T10:34:54.155Z,28.00
2022-08-17T10:37:59.240Z,28.10
2022-08-17T10:40:35.089Z,28.10
2022-08-17T10:43:11.595Z,28.30
2022-08-17T10:46:27.675Z,28.60
2022-08-17T10:49:17.529Z,28.50
2022-08-17T10:51:48.220Z,28.50
2022-08-17T10:54:35.059Z,28.30
2022-08-17T10:57:02.210Z,28.10
2022-08-17T10:59:35.188Z,28.00
2022-08-17T11:02:04.819Z,27.90
2022-08-17T11:04:59.014Z,27.60
2022-08-17T11:07:49.941Z,27.40
2022-08-17T11:10:52.990Z,27.40
2022-08-17T11:14:08.860Z,27.40
2022-08-17T11:16:50.714Z,27.30
2022-08-17T11:19:26.550Z,27.50
2022-08-17T11:22:50.146Z,27.50
2022-08-17T11:25:41.189Z,27.60
2022-08-17T11:28:23.483Z,28.10
2022-08-17T11:30:57.150Z,28.00
2022-08-17T11:33:30.520Z,28.10
2022-08-17T11:36:26.583Z,27.90
2022-08-17T11:39:23.754Z,27.90
2022-08-17T11:42:05.778Z,28.00
2022-08-17T11:44:55.897Z,28.20
2022-08-17T11:51:34.491Z,28.20
2022-08-17T11:57:02.208Z,28.60
2022-08-17T11:59:36.501Z,29.10
2022-08-17T12:02:32.948Z,29.40
2022-08-17T12:05:12.461Z,29.80
2022-08-17T12:08:00.441Z,29.30
2022-08-17T12:10:34.458Z,28.70
2022-08-17T12:13:11.335Z,28.20
2022-08-17T12:15:48.713Z,27.90
2022-08-17T12:18:31.953Z,27.70
2022-08-17T12:21:12.168Z,27.70
2022-08-17T12:24:06.423Z,27.90
2022-08-17T12:26:36.811Z,28.30
2022-08-17T12:29:18.497Z,28.80
2022-08-17T12:32:04.679Z,29.20
2022-08-17T12:34:41.961Z,29.50
2022-08-17T12:37:20.076Z,30.10
2022-08-17T12:40:08.244Z,30.90
2022-08-17T12:42:39.348Z,31.10
2022-08-17T12:45:22.270Z,30.70
2022-08-17T12:47:51.345Z,30.40
2022-08-17T12:50:29.628Z,30.50
2022-08-17T12:53:01.780Z,30.70
2022-08-17T12:55:32.513Z,30.60
2022-08-17T12:58:01.809Z,30.60
2022-08-17T13:00:34.311Z,30.50
2022-08-17T13:03:09.735Z,30.40
2022-08-17T13:06:09.541Z,30.40
2022-08-17T13:08:42.800Z,30.50
2022-08-17T13:11:16.456Z,30.80
2022-08-17T13:13:55.088Z,31.00
2022-08-17T13:16:30.120Z,31.50
2022-08-17T13:19:15.741Z,31.60
2022-08-17T13:21:50.372Z,31.60
2022-08-17T13:24:20.678Z,31.60
2022-08-17T13:26:54.491Z,31.90
2022-08-17T13:29:32.583Z,32.30
2022-08-17T13:32:11.574Z,32.60
2022-08-17T13:35:14.397Z,32.80
2022-08-17T13:38:03.475Z,32.20
2022-08-17T13:40:38.174Z,31.80
2022-08-17T13:43:05.563Z,31.70
2022-08-17T13:45:43.459Z,31.70
2022-08-17T13:48:29.611Z,32.10
2022-08-17T13:50:56.464Z,33.00
2022-08-17T13:53:37.046Z,33.80
2022-08-17T13:56:54.223Z,34.50
2022-08-17T13:59:54.193Z,35.20
2022-08-17T14:02:27.237Z,35.10
2022-08-17T14:04:57.802Z,34.80
2022-08-17T14:07:36.561Z,34.90
2022-08-17T14:10:17.376Z,35.00
2022-08-17T14:12:45.856Z,35.30
2022-08-17T14:15:16.418Z,36.20
2022-08-17T14:17:43.358Z,36.50
2022-08-17T14:20:13.120Z,37.30
2022-08-17T14:25:14.840Z,36.40
2022-08-17T14:27:53.375Z,36.10
2022-08-17T14:30:29.051Z,36.20
2022-08-17T14:32:58.237Z,35.90
2022-08-17T14:35:27.802Z,35.30
2022-08-17T14:37:55.498Z,35.20
2022-08-17T14:40:24.911Z,34.70
2022-08-17T14:42:55.178Z,34.90
2022-08-17T14:45:32.272Z,35.40
2022-08-17T14:47:59.517Z,35.90
2022-08-17T14:50:27.186Z,36.40
2022-08-17T14:52:56.265Z,35.90
2022-08-17T14:55:25.580Z,35.60
2022-08-17T14:57:52.820Z,36.30
2022-08-17T15:00:20.106Z,37.30
2022-08-17T15:02:54.743Z,37.20
2022-08-17T15:05:33.529Z,37.10
2022-08-17T15:08:02.657Z,37.00
2022-08-17T15:10:30.385Z,36.70
2022-08-17T15:12:57.989Z,36.80
2022-08-17T15:15:25.294Z,37.40
2022-08-17T15:17:52.391Z,38.70
2022-08-17T15:20:27.880Z,38.80
2022-08-17T15:22:56.201Z,38.70
2022-08-17T15:25:29.977Z,38.30
2022-08-17T15:27:57.202Z,38.30
2022-08-17T15:30:26.014Z,38.20
2022-08-17T15:32:55.328Z,37.60
2022-08-17T15:35:28.727Z,37.00
2022-08-17T15:38:11.139Z,36.70
2022-08-17T15:40:44.261Z,36.90
2022-08-17T15:43:27.257Z,36.80
2022-08-17T15:46:15.143Z,36.30
2022-08-17T15:48:45.074Z,36.00
2022-08-17T15:51:17.594Z,36.40
2022-08-17T15:53:48.619Z,36.90
2022-08-17T15:56:16.415Z,37.20
2022-08-17T15:58:46.538Z,37.70
2022-08-17T16:01:31.312Z,37.60
2022-08-17T16:04:13.271Z,36.40
2022-08-17T16:09:21.386Z,37.20
2022-08-17T16:11:52.014Z,37.90
2022-08-17T16:14:24.377Z,38.80
2022-08-17T16:16:52.754Z,39.10
2022-08-17T16:19:19.772Z,38.90
2022-08-17T16:21:46.675Z,38.60
2022-08-17T16:24:14.958Z,38.20
2022-08-17T16:26:42.738Z,37.10
2022-08-17T16:29:09.702Z,36.10
2022-08-17T16:31:37.682Z,35.60
2022-08-17T16:34:17.387Z,34.90
2022-08-17T16:36:55.812Z,34.70
2022-08-17T16:39:28.955Z,34.10
2022-08-17T16:41:56.496Z,32.90
2022-08-17T16:44:24.130Z,32.10
2022-08-17T16:46:53.866Z,32.00
2022-08-17T16:49:29.680Z,31.80
2022-08-17T16:52:07.459Z,31.70
2022-08-17T16:54:35.471Z,31.40
2022-08-17T16:57:05.138Z,31.20
2022-08-17T16:59:41.946Z,31.30
2022-08-17T17:02:16.493Z,31.50
2022-08-17T17:04:52.146Z,31.80
2022-08-17T17:07:55.466Z,31.80
2022-08-17T17:10:49.046Z,31.50
2022-08-17T17:13:32.618Z,31.40
2022-08-17T17:16:35.446Z,31.00
2022-08-17T17:19:11.094Z,30.50
2022-08-17T17:21:46.738Z,30.20
2022-08-17T17:24:39.715Z,30.00
2022-08-17T17:27:38.524Z,30.00
2022-08-17T17:30:15.742Z,29.90
2022-08-17T17:33:09.284Z,29.90
2022-08-17T17:35:49.454Z,30.00
2022-08-17T17:38:23.341Z,29.90
2022-08-17T17:41:04.603Z,29.70
2022-08-17T17:43:39.788Z,29.50
2022-08-17T17:46:27.742Z,29.30
2022-08-17T17:48:59.559Z,29.10
2022-08-17T17:52:06.281Z,29.00
2022-08-17T17:55:04.363Z,29.00
2022-08-17T17:57:56.402Z,28.70
2022-08-17T18:00:40.806Z,28.70
2022-08-17T18:03:31.928Z,28.50
2022-08-17T18:06:12.595Z,28.40
2022-08-17T18:08:50.695Z,28.20
2022-08-17T18:11:53.063Z,28.00
2022-08-17T18:14:29.341Z,28.00
2022-08-17T18:17:00.436Z,27.90
2022-08-17T18:19:30.334Z,27.70
2022-08-17T18:22:21.507Z,27.60
2022-08-17T18:24:58.868Z,27.40
2022-08-17T18:27:39.555Z,27.30
2022-08-17T18:30:18.329Z,27.10
2022-08-17T18:32:46.734Z,27.00
2022-08-17T18:35:16.369Z,26.90
2022-08-17T18:37:53.930Z,26.90
2022-08-17T18:40:20.902Z,26.90
2022-08-17T18:43:10.769Z,26.90
2022-08-17T18:45:49.430Z,26.90
2022-08-17T18:48:27.403Z,26.80
2022-08-17T18:51:02.532Z,26.70
2022-08-17T18:53:40.920Z,26.70
2022-08-17T18:56:36.772Z,26.60
2022-08-17T18:59:33.532Z,26.50
2022-08-17T19:02:22.050Z,26.30
2022-08-17T19:05:27.056Z,26.20
2022-08-17T19:07:54.918Z,26.20
2022-08-17T19:10:32.114Z,26.20
2022-08-17T19:13:42.784Z,26.20
2022-08-17T19:16:27.690Z,26.20
2022-08-17T19:19:35.285Z,26.10
2022-08-17T19:22:52.889Z,26.10
2022-08-17T19:25:31.051Z,26.10
2022-08-17T19:28:33.844Z,26.00
2022-08-17T19:31:16.593Z,25.90
2022-08-17T19:33:43.810Z,25.70
2022-08-17T19:36:25.748Z,25.50
2022-08-17T19:39:26.489Z,25.50
2022-08-17T19:42:19.702Z,25.50
2022-08-17T19:45:23.530Z,25.50
2022-08-17T19:48:14.024Z,25.50
2022-08-17T19:51:07.186Z,25.40
2022-08-17T19:54:04.936Z,25.40
2022-08-17T19:57:18.915Z,25.30
2022-08-17T20:00:01.984Z,25.30
2022-08-17T20:02:41.751Z,25.20
2022-08-17T20:06:08.740Z,25.10
2022-08-17T20:08:35.113Z,25.00
2022-08-17T20:11:11.150Z,24.80
2022-08-17T20:13:49.043Z,24.70
2022-08-17T20:16:18.431Z,24.50
2022-08-17T20:19:14.762Z,24.40
2022-08-17T20:22:12.419Z,24.30
2022-08-17T20:24:55.461Z,24.30
2022-08-17T20:27:31.605Z,24.30
2022-08-17T20:30:04.685Z,24.20
2022-08-17T20:32:53.215Z,24.20
2022-08-17T20:35:20.089Z,24.20
2022-08-17T20:38:11.650Z,24.20
2022-08-17T20:41:00.668Z,24.20
2022-08-17T20:43:33.044Z,24.10
2022-08-17T20:46:14.785Z,23.90
2022-08-17T20:48:46.949Z,23.90
2022-08-17T20:51:40.237Z,23.80
2022-08-17T20:54:46.647Z,23.70
2022-08-17T20:57:31.729Z,23.60
2022-08-17T21:00:27.993Z,23.60
2022-08-17T21:03:23.708Z,23.50
2022-08-17T21:06:11.086Z,23.40
2022-08-17T21:08:54.541Z,23.30
2022-08-17T21:11:57.371Z,23.30
2022-08-17T21:14:36.441Z,23.20
2022-08-17T21:17:34.352Z,23.20
2022-08-17T21:20:21.385Z,23.10
2022-08-17T21:23:00.258Z,23.10
2022-08-17T21:26:02.342Z,23.20
2022-08-17T21:29:17.192Z,23.20
2022-08-17T21:32:03.781Z,23.10
2022-08-17T21:35:07.806Z,23.10
2022-08-17T21:37:48.221Z,23.10
2022-08-17T21:40:18.260Z,22.90
2022-08-17T21:42:50.547Z,23.00
2022-08-17T21:45:35.199Z,23.00
2022-08-17T21:48:16.949Z,22.90
2022-08-17T21:50:59.295Z,22.90
2022-08-17T21:53:34.321Z,22.80
2022-08-17T21:56:01.392Z,22.50
2022-08-17T21:58:40.193Z,22.30
2022-08-17T22:01:20.195Z,22.30
2022-08-17T22:04:11.433Z,22.40
2022-08-17T22:06:52.654Z,22.50
2022-08-17T22:09:40.665Z,22.40
2022-08-17T22:12:18.373Z,22.50
2022-08-17T22:15:00.549Z,22.40
2022-08-17T22:17:37.882Z,22.30
2022-08-17T22:20:18.882Z,22.30
2022-08-17T22:23:04.220Z,22.20
2022-08-17T22:25:36.225Z,22.20
2022-08-17T22:28:11.057Z,22.20
2022-08-17T22:30:58.714Z,22.20
2022-08-17T22:33:33.267Z,22.10
2022-08-17T22:36:39.001Z,22.10
2022-08-17T22:39:08.951Z,22.20
2022-08-17T22:41:54.372Z,22.10
2022-08-17T22:44:30.143Z,22.10
2022-08-17T22:47:18.972Z,22.10
2022-08-17T22:50:15.184Z,22.20
2022-08-17T22:53:14.025Z,22.20
2022-08-17T22:56:14.126Z,22.10
2022-08-17T22:59:13.172Z,22.00
2022-08-17T23:01:41.616Z,22.00
2022-08-17T23:04:12.470Z,22.00
2022-08-17T23:06:42.448Z,22.00
2022-08-17T23:09:09.573Z,22.00
2022-08-17T23:11:48.889Z,21.90
2022-08-17T23:14:19.802Z,21.80
2022-08-17T23:16:50.273Z,21.70
2022-08-17T23:19:21.270Z,21.70
2022-08-17T23:21:55.194Z,21.60
2022-08-17T23:24:26.622Z,21.60
2022-08-17T23:26:57.083Z,21.60
2022-08-17T23:29:25.532Z,21.50
2022-08-17T23:31:53.074Z,21.50
2022-08-17T23:34:20.101Z,21.50
2022-08-17T23:36:52.794Z,21.50
2022-08-17T23:39:27.676Z,21.50
2022-08-17T23:41:58.070Z,21.50
2022-08-17T23:44:26.030Z,21.60
2022-08-17T23:46:54.292Z,21.70
2022-08-17T23:49:21.433Z,21.70
2022-08-17T23:51:49.791Z,21.70
2022-08-17T23:54:43.545Z,21.70
2022-08-17T23:57:18.572Z,21.70
2022-08-17T23:59:46.573Z,21.80
